createdAt,value
2018-10-19T00:00:20.869Z,101214.78
2018-10-19T00:01:26.899Z,101217.95
2018-10-19T00:02:32.994Z,101211.19
2018-10-19T00:03:39.407Z,101213.37
2018-10-19T00:04:45.728Z,101213.47
2018-10-19T00:05:51.825Z,101216.55
2018-10-19T00:06:58.310Z,101214.78
2018-10-19T00:08:03.930Z,101213.49
2018-10-19T00:09:09.666Z,101204.70
2018-10-19T00:10:16.841Z,101205.55
2018-10-19T00:11:22.570Z,101207.32
2018-10-19T00:12:28.604Z,101203.78
2018-10-19T00:13:34.650Z,101200.16
2018-10-19T00:14:40.780Z,101203.34
2018-10-19T00:15:47.808Z,101202.89
2018-10-19T00:16:53.580Z,101205.98
2018-10-19T00:17:59.924Z,101201.05
2018-10-19T00:19:05.824Z,101210.67
2018-10-19T00:20:11.923Z,101208.97
2018-10-19T00:21:18.011Z,101202.46
2018-10-19T00:22:24.101Z,101208.91
2018-10-19T00:23:29.998Z,101211.97
2018-10-19T00:24:36.342Z,101210.23
2018-10-19T00:25:42.451Z,101212.46
2018-10-19T00:26:48.562Z,101211.55
2018-10-19T00:27:54.989Z,101214.70
2018-10-19T00:29:01.447Z,101215.01
2018-10-19T00:30:06.991Z,101211.14
2018-10-19T00:31:13.126Z,101211.06
2018-10-19T00:32:19.412Z,101214.06
2018-10-19T00:33:25.703Z,101206.70
2018-10-19T00:34:32.034Z,101208.95
2018-10-19T00:35:38.118Z,101207.27
2018-10-19T00:36:44.266Z,101208.69
2018-10-19T00:37:50.888Z,101210.27
2018-10-19T00:38:57.203Z,101206.80
2018-10-19T00:40:03.328Z,101209.05
2018-10-19T00:41:09.294Z,101207.25
2018-10-19T00:42:15.647Z,101215.22
2018-10-19T00:43:22.037Z,101208.28
2018-10-19T00:44:28.448Z,101215.22
2018-10-19T00:45:34.181Z,101214.43
2018-10-19T00:46:40.137Z,101212.70
2018-10-19T00:47:46.558Z,101213.64
2018-10-19T00:48:52.855Z,101213.23
2018-10-19T00:49:58.951Z,101203.59
2018-10-19T00:51:04.412Z,101206.08
2018-10-19T00:52:10.669Z,101199.50
2018-10-19T00:53:17.094Z,101199.56
2018-10-19T00:54:23.382Z,101205.79
2018-10-19T00:55:29.621Z,101198.82
2018-10-19T00:56:35.702Z,101200.14
2018-10-19T00:57:41.827Z,101197.56
2018-10-19T00:58:48.219Z,101198.34
2018-10-19T00:59:53.982Z,101195.98
2018-10-19T01:01:00.032Z,101198.80
2018-10-19T01:02:05.824Z,101193.06
2018-10-19T01:03:11.921Z,101189.11
2018-10-19T01:04:18.542Z,101194.54
2018-10-19T01:05:24.654Z,101196.73
2018-10-19T01:06:30.773Z,101192.15
2018-10-19T01:07:36.865Z,101193.05
2018-10-19T01:08:42.869Z,101187.77
2018-10-19T01:09:48.904Z,101193.48
2018-10-19T01:10:55.061Z,101190.38
2018-10-19T01:12:01.306Z,101191.81
2018-10-19T01:13:07.195Z,101186.55
2018-10-19T01:14:13.230Z,101194.48
2018-10-19T01:15:19.342Z,101191.55
2018-10-19T01:16:25.438Z,101191.94
2018-10-19T01:17:31.530Z,101190.68
2018-10-19T01:18:37.937Z,101188.89
2018-10-19T01:19:44.006Z,101190.20
2018-10-19T01:20:50.075Z,101188.12
2018-10-19T01:21:56.161Z,101188.58
2018-10-19T01:23:02.192Z,101190.33
2018-10-19T01:24:08.684Z,101190.80
2018-10-19T01:25:14.454Z,101192.56
2018-10-19T01:26:19.793Z,101193.45
2018-10-19T01:27:25.882Z,101198.98
2018-10-19T01:28:32.011Z,101199.52
2018-10-19T01:29:37.875Z,101202.31
2018-10-19T01:30:43.995Z,101204.94
2018-10-19T01:31:50.008Z,101199.08
2018-10-19T01:32:56.172Z,101206.12
2018-10-19T01:34:02.601Z,101204.37
2018-10-19T01:35:07.940Z,101202.77
2018-10-19T01:36:14.077Z,101205.98
2018-10-19T01:37:20.003Z,101201.14
2018-10-19T01:38:25.996Z,101203.23
2018-10-19T01:39:32.242Z,101202.64
2018-10-19T01:40:38.351Z,101200.05
2018-10-19T01:41:44.458Z,101206.02
2018-10-19T01:42:50.773Z,101201.36
2018-10-19T01:43:57.134Z,101202.25
2018-10-19T01:45:03.279Z,101202.23
2018-10-19T01:46:09.635Z,101207.42
2018-10-19T01:47:15.793Z,101206.60
2018-10-19T01:48:21.358Z,101204.79
2018-10-19T01:49:28.027Z,101208.48
2018-10-19T01:50:34.137Z,101207.26
2018-10-19T01:51:40.146Z,101202.20
2018-10-19T01:52:46.462Z,101210.48
2018-10-19T01:53:52.906Z,101215.71
2018-10-19T01:54:59.117Z,101218.41
2018-10-19T01:56:04.821Z,101214.02
2018-10-19T01:57:11.163Z,101212.69
2018-10-19T01:58:17.684Z,101214.66
2018-10-19T01:59:23.965Z,101220.86
2018-10-19T02:00:29.938Z,101214.09
2018-10-19T02:01:35.908Z,101213.78
2018-10-19T02:02:41.870Z,101218.47
2018-10-19T02:03:48.173Z,101214.14
2018-10-19T02:04:54.190Z,101223.66
2018-10-19T02:06:00.458Z,101216.33
2018-10-19T02:07:06.197Z,101221.82
2018-10-19T02:08:12.275Z,101221.75
2018-10-19T02:09:18.538Z,101221.28
2018-10-19T02:10:25.407Z,101218.30
2018-10-19T02:11:31.553Z,101223.59
2018-10-19T02:12:37.726Z,101223.39
2018-10-19T02:13:43.766Z,101223.52
2018-10-19T02:14:49.988Z,101226.20
2018-10-19T02:15:56.019Z,101225.72
2018-10-19T02:17:01.755Z,101231.92
2018-10-19T02:18:08.184Z,101230.19
2018-10-19T02:19:14.474Z,101228.77
2018-10-19T02:20:20.428Z,101231.34
2018-10-19T02:21:26.386Z,101235.08
2018-10-19T02:22:32.349Z,101229.50
2018-10-19T02:23:38.326Z,101233.05
2018-10-19T02:24:44.638Z,101225.22
2018-10-19T02:25:50.620Z,101231.28
2018-10-19T02:26:56.602Z,101231.14
2018-10-19T02:28:03.050Z,101233.89
2018-10-19T02:29:09.605Z,101234.30
2018-10-19T02:30:15.842Z,101237.17
2018-10-19T02:31:21.950Z,101237.28
2018-10-19T02:32:28.060Z,101234.15
2018-10-19T02:33:33.793Z,101236.61
2018-10-19T02:34:39.415Z,101234.75
2018-10-19T02:35:45.366Z,101239.02
2018-10-19T02:36:50.977Z,101243.84
2018-10-19T02:37:57.297Z,101247.72
2018-10-19T02:39:03.332Z,101238.51
2018-10-19T02:40:09.591Z,101245.61
2018-10-19T02:41:15.896Z,101242.34
2018-10-19T02:42:22.112Z,101246.27
2018-10-19T02:43:28.507Z,101247.65
2018-10-19T02:44:35.266Z,101247.92
2018-10-19T02:45:41.363Z,101249.53
2018-10-19T02:46:47.080Z,101246.90
2018-10-19T02:47:53.578Z,101248.70
2018-10-19T02:48:59.904Z,101246.48
2018-10-19T02:50:05.376Z,101244.76
2018-10-19T02:51:11.549Z,101247.58
2018-10-19T02:52:17.959Z,101250.91
2018-10-19T02:53:24.418Z,101250.75
2018-10-19T02:54:30.922Z,101249.44
2018-10-19T02:55:37.039Z,101250.95
2018-10-19T02:56:44.287Z,101255.19
2018-10-19T02:57:51.568Z,101247.89
2018-10-19T02:58:58.020Z,101250.74
2018-10-19T03:00:03.619Z,101244.93
2018-10-19T03:01:09.978Z,101247.14
2018-10-19T03:02:16.260Z,101252.13
2018-10-19T03:03:22.786Z,101249.30
2018-10-19T03:04:29.234Z,101249.91
2018-10-19T03:05:35.221Z,101256.25
2018-10-19T03:06:41.127Z,101250.23
2018-10-19T03:07:47.061Z,101251.09
2018-10-19T03:08:53.070Z,101251.57
2018-10-19T03:09:59.288Z,101249.89
2018-10-19T03:11:05.048Z,101250.80
2018-10-19T03:12:13.790Z,101250.34
2018-10-19T03:13:20.610Z,101249.01
2018-10-19T03:14:26.941Z,101254.30
2018-10-19T03:15:33.025Z,101254.31
2018-10-19T03:16:39.061Z,101254.83
2018-10-19T03:17:45.284Z,101255.08
2018-10-19T03:18:51.563Z,101255.97
2018-10-19T03:19:57.206Z,101255.19
2018-10-19T03:21:03.188Z,101255.34
2018-10-19T03:22:09.335Z,101253.75
2018-10-19T03:23:15.672Z,101255.80
2018-10-19T03:24:22.827Z,101251.50
2018-10-19T03:25:30.197Z,101250.20
2018-10-19T03:26:37.811Z,101248.47
2018-10-19T03:27:45.658Z,101245.84
2018-10-19T03:28:52.765Z,101252.33
2018-10-19T03:29:58.864Z,101250.23
2018-10-19T03:31:04.844Z,101246.19
2018-10-19T03:32:11.087Z,101239.64
2018-10-19T03:33:17.376Z,101247.17
2018-10-19T03:34:23.910Z,101245.52
2018-10-19T03:35:29.982Z,101242.34
2018-10-19T03:36:36.123Z,101241.49
2018-10-19T03:37:42.355Z,101241.03
2018-10-19T03:38:48.700Z,101240.91
2018-10-19T03:39:54.707Z,101245.22
2018-10-19T03:41:00.818Z,101243.56
2018-10-19T03:42:06.434Z,101245.77
2018-10-19T03:43:12.968Z,101246.16
2018-10-19T03:44:19.237Z,101246.64
2018-10-19T03:45:25.378Z,101242.93
2018-10-19T03:46:31.507Z,101241.06
2018-10-19T03:47:37.659Z,101239.14
2018-10-19T03:48:44.006Z,101240.22
2018-10-19T03:49:50.233Z,101238.11
2018-10-19T03:50:56.334Z,101237.73
2018-10-19T03:52:02.433Z,101235.58
2018-10-19T03:53:08.806Z,101245.31
2018-10-19T03:54:15.009Z,101243.13
2018-10-19T03:55:20.990Z,101242.64
2018-10-19T03:56:27.055Z,101244.45
2018-10-19T03:57:33.157Z,101246.34
2018-10-19T03:58:39.574Z,101245.54
2018-10-19T03:59:45.860Z,101245.98
2018-10-19T04:00:51.970Z,101249.30
2018-10-19T04:01:58.078Z,101248.28
2018-10-19T04:03:03.902Z,101246.44
2018-10-19T04:04:10.365Z,101248.10
2018-10-19T04:05:16.593Z,101242.35
2018-10-19T04:06:22.477Z,101247.56
2018-10-19T04:07:28.498Z,101253.64
2018-10-19T04:08:34.870Z,101245.83
2018-10-19T04:09:41.244Z,101247.83
2018-10-19T04:10:47.369Z,101249.03
2018-10-19T04:11:53.458Z,101249.33
2018-10-19T04:12:59.578Z,101245.59
2018-10-19T04:14:05.625Z,101251.47
2018-10-19T04:15:12.548Z,101249.27
2018-10-19T04:16:18.751Z,101248.52
2018-10-19T04:17:24.811Z,101248.73
2018-10-19T04:18:31.370Z,101249.27
2018-10-19T04:19:39.951Z,101253.51
2018-10-19T04:20:47.176Z,101254.59
2018-10-19T04:21:53.271Z,101255.48
2018-10-19T04:22:59.475Z,101256.81
2018-10-19T04:24:04.887Z,101254.34
2018-10-19T04:25:11.011Z,101255.00
2018-10-19T04:26:16.978Z,101254.17
2018-10-19T04:27:22.957Z,101252.20
2018-10-19T04:28:29.275Z,101254.59
2018-10-19T04:29:35.542Z,101253.38
2018-10-19T04:30:41.505Z,101254.50
2018-10-19T04:31:47.498Z,101249.67
2018-10-19T04:32:53.657Z,101255.48
2018-10-19T04:34:00.039Z,101253.84
2018-10-19T04:35:06.074Z,101251.80
2018-10-19T04:36:12.343Z,101254.23
2018-10-19T04:37:18.392Z,101257.42
2018-10-19T04:38:24.369Z,101256.72
2018-10-19T04:39:30.626Z,101259.36
2018-10-19T04:40:36.609Z,101255.50
2018-10-19T04:41:42.587Z,101255.02
2018-10-19T04:42:48.958Z,101254.19
2018-10-19T04:43:54.887Z,101261.59
2018-10-19T04:45:00.868Z,101260.80
2018-10-19T04:46:06.880Z,101262.80
2018-10-19T04:47:12.906Z,101264.05
2018-10-19T04:48:19.193Z,101260.39
2018-10-19T04:49:25.309Z,101264.84
2018-10-19T04:50:31.400Z,101266.24
2018-10-19T04:51:37.502Z,101267.17
2018-10-19T04:52:43.813Z,101264.41
2018-10-19T04:53:49.976Z,101268.42
2018-10-19T04:54:56.463Z,101270.32
2018-10-19T04:56:03.745Z,101270.67
2018-10-19T04:57:09.836Z,101271.66
2018-10-19T04:58:16.409Z,101273.83
2018-10-19T04:59:22.832Z,101273.84
2018-10-19T05:00:28.934Z,101271.91
2018-10-19T05:01:35.077Z,101277.09
2018-10-19T05:02:41.164Z,101283.08
2018-10-19T05:03:47.335Z,101277.31
2018-10-19T05:04:53.401Z,101285.46
2018-10-19T05:05:59.773Z,101277.59
2018-10-19T05:07:05.865Z,101277.27
2018-10-19T05:08:11.716Z,101276.97
2018-10-19T05:09:18.013Z,101276.39
2018-10-19T05:10:23.916Z,101273.85
2018-10-19T05:11:29.855Z,101277.89
2018-10-19T05:12:35.796Z,101271.41
2018-10-19T05:13:42.167Z,101277.09
2018-10-19T05:14:48.109Z,101274.09
2018-10-19T05:15:54.027Z,101275.74
2018-10-19T05:17:00.015Z,101278.73
2018-10-19T05:18:05.898Z,101273.16
2018-10-19T05:19:11.866Z,101273.77
2018-10-19T05:20:17.887Z,101269.55
2018-10-19T05:21:23.941Z,101276.03
2018-10-19T05:22:29.926Z,101283.56
2018-10-19T05:23:36.163Z,101267.53
2018-10-19T05:24:42.245Z,101275.09
2018-10-19T05:25:48.844Z,101277.87
2018-10-19T05:26:55.052Z,101273.14
2018-10-19T05:28:01.447Z,101272.36
2018-10-19T05:29:07.526Z,101270.25
2018-10-19T05:30:13.694Z,101281.95
2018-10-19T05:31:19.635Z,101282.09
2018-10-19T05:32:25.723Z,101282.98
2018-10-19T05:33:31.673Z,101286.05
2018-10-19T05:34:37.625Z,101284.52
2018-10-19T05:35:43.549Z,101285.77
2018-10-19T05:36:49.469Z,101295.47
2018-10-19T05:37:55.427Z,101288.98
2018-10-19T05:39:01.517Z,101294.80
2018-10-19T05:40:08.412Z,101295.67
2018-10-19T05:41:14.310Z,101293.80
2018-10-19T05:42:20.489Z,101290.11
2018-10-19T05:43:26.705Z,101299.59
2018-10-19T05:44:33.094Z,101299.29
2018-10-19T05:45:38.998Z,101304.17
2018-10-19T05:46:44.933Z,101299.83
2018-10-19T05:47:50.900Z,101305.34
2018-10-19T05:48:56.818Z,101305.98
2018-10-19T05:50:02.773Z,101306.50
2018-10-19T05:51:08.911Z,101306.95
2018-10-19T05:52:14.862Z,101306.67
2018-10-19T05:53:20.987Z,101305.80
2018-10-19T05:54:26.918Z,101312.80
2018-10-19T05:55:32.818Z,101310.53
2018-10-19T05:56:38.728Z,101310.80
2018-10-19T05:57:44.658Z,101313.92
2018-10-19T05:58:50.572Z,101318.37
2018-10-19T06:00:00.889Z,101320.55
2018-10-19T06:01:06.129Z,101323.25
2018-10-19T06:02:12.104Z,101326.84
2018-10-19T06:03:18.196Z,101321.16
2018-10-19T06:04:24.393Z,101319.49
2018-10-19T06:05:30.340Z,101326.97
2018-10-19T06:06:36.251Z,101327.84
2018-10-19T06:07:42.181Z,101326.09
2018-10-19T06:08:48.109Z,101326.48
2018-10-19T06:09:54.055Z,101332.55
2018-10-19T06:10:59.995Z,101330.38
2018-10-19T06:12:05.395Z,101333.51
2018-10-19T06:13:11.309Z,101329.08
2018-10-19T06:14:17.221Z,101339.47
2018-10-19T06:15:23.155Z,101335.53
2018-10-19T06:16:29.092Z,101333.66
2018-10-19T06:17:34.989Z,101339.25
2018-10-19T06:18:40.933Z,101338.37
2018-10-19T06:19:46.913Z,101336.70
2018-10-19T06:20:54.295Z,101342.76
2018-10-19T06:22:05.392Z,101340.05
2018-10-19T06:23:11.402Z,101343.95
2018-10-19T06:24:17.467Z,101345.36
2018-10-19T06:25:23.412Z,101343.97
2018-10-19T06:26:29.056Z,101344.92
2018-10-19T06:27:35.149Z,101348.39
2018-10-19T06:28:41.065Z,101345.94
2018-10-19T06:29:47.009Z,101352.91
2018-10-19T06:30:52.544Z,101350.27
2018-10-19T06:31:58.095Z,101348.52
2018-10-19T06:33:04.023Z,101351.97
2018-10-19T06:34:09.977Z,101348.55
2018-10-19T06:35:16.007Z,101351.06
2018-10-19T06:36:22.055Z,101351.09
2018-10-19T06:37:27.957Z,101347.60
2018-10-19T06:38:33.868Z,101350.73
2018-10-19T06:39:39.797Z,101351.16
2018-10-19T06:40:45.828Z,101356.11
2018-10-19T06:41:51.854Z,101355.82
2018-10-19T06:42:57.745Z,101360.18
2018-10-19T06:44:03.729Z,101360.04
2018-10-19T06:45:09.183Z,101357.73
2018-10-19T06:46:14.792Z,101357.25
2018-10-19T06:47:20.941Z,101362.08
2018-10-19T06:48:26.577Z,101366.30
2018-10-19T06:49:32.466Z,101365.91
2018-10-19T06:50:38.408Z,101364.19
2018-10-19T06:51:44.378Z,101359.95
2018-10-19T06:52:50.274Z,101367.02
2018-10-19T06:53:56.439Z,101359.16
2018-10-19T06:55:02.375Z,101367.45
2018-10-19T06:56:08.347Z,101362.63
2018-10-19T06:57:14.413Z,101364.89
2018-10-19T06:58:20.618Z,101366.20
2018-10-19T06:59:26.567Z,101365.05
2018-10-19T07:00:32.690Z,101370.81
2018-10-19T07:01:38.605Z,101374.36
2018-10-19T07:02:45.851Z,101369.95
2018-10-19T07:04:04.440Z,101373.72
2018-10-19T07:05:10.164Z,101374.14
2018-10-19T07:06:16.249Z,101370.64
2018-10-19T07:07:22.348Z,101375.38
2018-10-19T07:08:27.979Z,101373.19
2018-10-19T07:09:34.054Z,101370.31
2018-10-19T07:10:39.984Z,101369.77
2018-10-19T07:11:45.893Z,101370.76
2018-10-19T07:12:51.838Z,101371.16
2018-10-19T07:13:57.554Z,101371.63
2018-10-19T07:15:03.307Z,101375.27
2018-10-19T07:16:09.259Z,101373.84
2018-10-19T07:17:15.333Z,101373.40
2018-10-19T07:18:21.334Z,101379.41
2018-10-19T07:19:27.249Z,101382.27
2018-10-19T07:20:33.178Z,101384.83
2018-10-19T07:21:39.178Z,101383.87
2018-10-19T07:22:44.904Z,101378.28
2018-10-19T07:23:54.514Z,101378.34
2018-10-19T07:25:00.449Z,101379.14
2018-10-19T07:26:06.146Z,101381.16
2018-10-19T07:27:12.216Z,101379.86
2018-10-19T07:28:18.406Z,101379.44
2018-10-19T07:29:24.325Z,101381.27
2018-10-19T07:30:30.493Z,101385.39
2018-10-19T07:31:36.423Z,101382.55
2018-10-19T07:32:42.304Z,101383.11
2018-10-19T07:33:48.215Z,101383.34
2018-10-19T07:34:53.921Z,101386.07
2018-10-19T07:35:59.869Z,101391.30
2018-10-19T07:37:05.769Z,101384.88
2018-10-19T07:38:11.679Z,101380.98
2018-10-19T07:39:17.787Z,101382.80
2018-10-19T07:40:23.701Z,101383.66
2018-10-19T07:41:29.621Z,101383.22
2018-10-19T07:42:35.680Z,101378.08
2018-10-19T07:43:41.653Z,101381.70
2018-10-19T07:44:49.391Z,101378.59
2018-10-19T07:45:56.935Z,101386.30
2018-10-19T07:47:02.892Z,101380.45
2018-10-19T07:48:09.117Z,101384.80
2018-10-19T07:49:15.105Z,101391.50
2018-10-19T07:50:21.019Z,101379.95
2018-10-19T07:51:26.983Z,101388.26
2018-10-19T07:52:32.882Z,101390.95
2018-10-19T07:53:38.420Z,101392.23
2018-10-19T07:54:44.307Z,101397.25
2018-10-19T07:55:50.250Z,101395.57
2018-10-19T07:56:56.172Z,101396.03
2018-10-19T07:58:01.715Z,101399.81
2018-10-19T07:59:07.650Z,101400.02
2018-10-19T08:00:13.787Z,101402.28
2018-10-19T08:01:20.017Z,101400.05
2018-10-19T08:02:26.077Z,101397.04
2018-10-19T08:03:31.984Z,101397.50
2018-10-19T08:04:38.160Z,101397.27
2018-10-19T08:05:44.484Z,101399.03
2018-10-19T08:06:50.423Z,101396.47
2018-10-19T08:07:56.370Z,101407.38
2018-10-19T08:09:02.486Z,101402.52
2018-10-19T08:10:07.690Z,101400.32
2018-10-19T08:11:13.685Z,101393.64
2018-10-19T08:12:19.765Z,101401.50
2018-10-19T08:13:25.652Z,101403.95
2018-10-19T08:14:31.550Z,101403.23
2018-10-19T08:15:37.494Z,101406.58
2018-10-19T08:16:43.457Z,101407.66
2018-10-19T08:17:49.667Z,101414.11
2018-10-19T08:18:55.716Z,101417.20
2018-10-19T08:20:01.672Z,101410.78
2018-10-19T08:21:07.793Z,101410.50
2018-10-19T08:22:13.953Z,101411.29
2018-10-19T08:23:19.859Z,101407.56
2018-10-19T08:24:25.759Z,101412.67
2018-10-19T08:25:31.648Z,101416.53
2018-10-19T08:26:39.577Z,101412.33
2018-10-19T08:27:46.508Z,101407.88
2018-10-19T08:28:52.453Z,101406.13
2018-10-19T08:29:58.802Z,101410.41
2018-10-19T08:31:04.008Z,101414.28
2018-10-19T08:32:10.080Z,101418.87
2018-10-19T08:33:16.174Z,101421.02
2018-10-19T08:34:22.071Z,101420.59
2018-10-19T08:35:28.034Z,101425.73
2018-10-19T08:36:33.978Z,101425.81
2018-10-19T08:37:39.921Z,101424.91
2018-10-19T08:38:46.019Z,101428.40
2018-10-19T08:39:51.942Z,101421.44
2018-10-19T08:40:57.905Z,101421.88
2018-10-19T08:42:04.004Z,101417.59
2018-10-19T08:43:09.989Z,101417.74
2018-10-19T08:44:16.090Z,101420.27
2018-10-19T08:45:21.666Z,101419.26
2018-10-19T08:46:27.398Z,101421.19
2018-10-19T08:47:34.504Z,101427.30
2018-10-19T08:48:40.826Z,101426.14
2018-10-19T08:49:46.737Z,101427.25
2018-10-19T08:50:52.642Z,101435.19
2018-10-19T08:51:58.580Z,101435.19
2018-10-19T08:53:04.133Z,101432.12
2018-10-19T08:54:10.287Z,101434.33
2018-10-19T08:55:16.177Z,101433.55
2018-10-19T08:56:22.113Z,101429.18
2018-10-19T08:57:28.077Z,101430.31
2018-10-19T08:58:34.218Z,101430.25
2018-10-19T08:59:40.154Z,101420.88
2018-10-19T09:00:46.076Z,101429.25
2018-10-19T09:01:52.023Z,101430.56
2018-10-19T09:02:57.944Z,101429.55
2018-10-19T09:04:03.741Z,101426.81
2018-10-19T09:05:09.858Z,101433.66
2018-10-19T09:06:16.023Z,101431.09
2018-10-19T09:07:22.157Z,101429.13
2018-10-19T09:08:28.072Z,101427.73
2018-10-19T09:09:40.066Z,101430.23
2018-10-19T09:10:47.799Z,101424.58
2018-10-19T09:11:54.042Z,101426.11
2018-10-19T09:13:00.144Z,101430.13
2018-10-19T09:14:05.372Z,101429.33
2018-10-19T09:15:11.282Z,101431.43
2018-10-19T09:16:17.445Z,101427.58
2018-10-19T09:17:23.629Z,101434.77
2018-10-19T09:18:29.595Z,101441.97
2018-10-19T09:19:35.494Z,101439.17
2018-10-19T09:20:41.392Z,101439.47
2018-10-19T09:21:47.281Z,101436.02
2018-10-19T09:22:53.273Z,101443.03
2018-10-19T09:23:59.366Z,101441.71
2018-10-19T09:25:04.624Z,101440.56
2018-10-19T09:26:10.542Z,101435.42
2018-10-19T09:27:16.550Z,101437.86
2018-10-19T09:28:22.657Z,101441.89
2018-10-19T09:29:28.597Z,101436.45
2018-10-19T09:30:39.185Z,101441.25
2018-10-19T09:31:48.701Z,101436.70
2018-10-19T09:32:54.666Z,101440.86
2018-10-19T09:34:01.076Z,101438.92
2018-10-19T09:35:06.350Z,101444.10
2018-10-19T09:36:12.339Z,101436.38
2018-10-19T09:37:18.113Z,101443.80
2018-10-19T09:38:24.046Z,101435.86
2018-10-19T09:39:29.968Z,101432.28
2018-10-19T09:40:35.874Z,101435.24
2018-10-19T09:41:41.787Z,101442.69
2018-10-19T09:42:47.767Z,101435.63
2018-10-19T09:43:53.653Z,101442.63
2018-10-19T09:44:59.867Z,101439.04
2018-10-19T09:46:06.024Z,101437.92
2018-10-19T09:47:12.170Z,101435.73
2018-10-19T09:48:17.780Z,101433.14
2018-10-19T09:49:23.731Z,101428.23
2018-10-19T09:50:29.655Z,101426.31
2018-10-19T09:51:35.547Z,101428.83
2018-10-19T09:52:41.462Z,101427.27
2018-10-19T09:53:47.374Z,101430.92
2018-10-19T09:54:53.315Z,101427.75
2018-10-19T09:55:59.259Z,101431.77
2018-10-19T09:57:05.036Z,101433.60
2018-10-19T09:58:11.176Z,101429.58
2018-10-19T09:59:17.168Z,101428.22
2018-10-19T10:00:22.790Z,101434.23
2018-10-19T10:01:28.935Z,101433.09
2018-10-19T10:02:34.876Z,101426.75
2018-10-19T10:03:40.783Z,101426.56
2018-10-19T10:04:46.758Z,101431.06
2018-10-19T10:05:52.790Z,101429.13
2018-10-19T10:06:58.873Z,101427.63
2018-10-19T10:08:04.260Z,101431.95
2018-10-19T10:09:09.939Z,101434.91
2018-10-19T10:10:16.031Z,101432.20
2018-10-19T10:11:21.981Z,101425.12
2018-10-19T10:12:27.932Z,101436.16
2018-10-19T10:13:33.896Z,101433.08
2018-10-19T10:14:39.811Z,101432.43
2018-10-19T10:15:45.798Z,101431.45
2018-10-19T10:16:51.370Z,101426.67
2018-10-19T10:17:57.306Z,101433.54
2018-10-19T10:19:02.921Z,101432.66
2018-10-19T10:20:08.754Z,101428.91
2018-10-19T10:21:14.652Z,101435.03
2018-10-19T10:22:20.730Z,101429.16
2018-10-19T10:23:26.846Z,101430.09
2018-10-19T10:24:32.568Z,101431.64
2018-10-19T10:25:38.616Z,101430.28
2018-10-19T10:26:44.697Z,101431.41
2018-10-19T10:27:50.965Z,101422.84
2018-10-19T10:28:57.041Z,101425.36
2018-10-19T10:30:02.806Z,101424.59
2018-10-19T10:31:08.854Z,101422.19
2018-10-19T10:32:15.215Z,101416.34
2018-10-19T10:33:21.826Z,101425.11
2018-10-19T10:34:27.903Z,101428.61
2018-10-19T10:35:34.016Z,101426.33
2018-10-19T10:36:39.943Z,101424.77
2018-10-19T10:37:45.855Z,101422.92
2018-10-19T10:38:51.784Z,101421.84
2018-10-19T10:39:57.851Z,101424.16
2018-10-19T10:41:03.966Z,101423.82
2018-10-19T10:42:09.573Z,101422.56
2018-10-19T10:43:15.900Z,101418.69
2018-10-19T10:44:21.934Z,101418.05
2018-10-19T10:45:27.473Z,101420.06
2018-10-19T10:46:33.388Z,101414.70
2018-10-19T10:47:39.301Z,101409.39
2018-10-19T10:48:45.236Z,101409.74
2018-10-19T10:49:51.168Z,101412.29
2018-10-19T10:50:56.870Z,101413.62
2018-10-19T10:52:02.800Z,101406.52
2018-10-19T10:53:08.950Z,101405.11
2018-10-19T10:54:14.869Z,101412.70
2018-10-19T10:55:22.065Z,101405.15
2018-10-19T10:56:27.988Z,101413.28
2018-10-19T10:57:34.094Z,101408.03
2018-10-19T10:58:40.247Z,101407.84
2018-10-19T10:59:46.303Z,101405.70
2018-10-19T11:00:52.432Z,101399.34
2018-10-19T11:01:58.528Z,101400.49
2018-10-19T11:03:04.624Z,101391.05
2018-10-19T11:04:10.824Z,101397.95
2018-10-19T11:05:16.912Z,101392.06
2018-10-19T11:06:22.834Z,101392.16
2018-10-19T11:07:28.928Z,101389.75
2018-10-19T11:08:34.915Z,101390.86
2018-10-19T11:09:40.989Z,101382.66
2018-10-19T11:10:46.385Z,101392.61
2018-10-19T11:11:52.474Z,101385.45
2018-10-19T11:12:58.625Z,101387.13
2018-10-19T11:14:04.549Z,101382.84
2018-10-19T11:15:10.223Z,101381.71
2018-10-19T11:16:16.278Z,101377.22
2018-10-19T11:17:22.533Z,101378.25
2018-10-19T11:18:28.644Z,101377.92
2018-10-19T11:19:34.967Z,101380.67
2018-10-19T11:20:41.015Z,101380.31
2018-10-19T11:21:47.126Z,101376.38
2018-10-19T11:22:53.221Z,101379.08
2018-10-19T11:23:59.360Z,101382.58
2018-10-19T11:25:05.582Z,101377.49
2018-10-19T11:26:11.863Z,101384.31
2018-10-19T11:27:17.960Z,101381.95
2018-10-19T11:28:24.069Z,101379.67
2018-10-19T11:29:30.217Z,101377.34
2018-10-19T11:30:36.003Z,101378.00
2018-10-19T11:31:42.189Z,101379.58
2018-10-19T11:32:48.301Z,101378.49
2018-10-19T11:33:54.487Z,101376.47
2018-10-19T11:35:00.585Z,101378.15
2018-10-19T11:36:06.494Z,101374.55
2018-10-19T11:37:19.596Z,101378.81
2018-10-19T11:38:25.721Z,101370.36
2018-10-19T11:39:31.744Z,101368.16
2018-10-19T11:40:37.975Z,101370.67
2018-10-19T11:41:43.945Z,101367.34
2018-10-19T11:42:50.047Z,101368.27
2018-10-19T11:43:56.388Z,101369.66
2018-10-19T11:45:02.686Z,101366.93
2018-10-19T11:46:08.977Z,101362.51
2018-10-19T11:47:14.802Z,101365.73
2018-10-19T11:48:21.177Z,101365.66
2018-10-19T11:49:27.188Z,101367.47
2018-10-19T11:50:32.949Z,101365.03
2018-10-19T11:51:38.962Z,101359.95
2018-10-19T11:52:44.985Z,101357.56
2018-10-19T11:53:51.072Z,101357.69
2018-10-19T11:54:57.234Z,101356.41
2018-10-19T11:56:03.307Z,101356.48
2018-10-19T11:57:09.446Z,101359.90
2018-10-19T11:58:15.794Z,101354.04
2018-10-19T11:59:23.922Z,101353.52
2018-10-19T12:00:29.997Z,101349.09
2018-10-19T12:01:36.134Z,101350.95
2018-10-19T12:02:42.002Z,101348.28
2018-10-19T12:03:48.014Z,101347.31
2018-10-19T12:04:54.125Z,101347.55
2018-10-19T12:06:00.237Z,101348.82
2018-10-19T12:07:06.003Z,101346.86
2018-10-19T12:08:12.233Z,101347.14
2018-10-19T12:09:18.575Z,101345.56
2018-10-19T12:10:24.648Z,101347.27
2018-10-19T12:11:30.782Z,101346.33
2018-10-19T12:12:37.054Z,101341.23
2018-10-19T12:13:43.174Z,101344.53
2018-10-19T12:14:49.311Z,101342.44
2018-10-19T12:15:55.674Z,101344.44
2018-10-19T12:17:01.899Z,101346.54
2018-10-19T12:18:08.011Z,101340.37
2018-10-19T12:19:21.074Z,101341.59
2018-10-19T12:20:26.977Z,101343.52
2018-10-19T12:21:33.030Z,101340.67
2018-10-19T12:22:38.740Z,101342.54
2018-10-19T12:23:45.094Z,101339.42
2018-10-19T12:24:51.202Z,101338.19
2018-10-19T12:25:56.972Z,101337.86
2018-10-19T12:27:02.974Z,101338.23
2018-10-19T12:28:08.900Z,101337.78
2018-10-19T12:29:15.246Z,101335.91
2018-10-19T12:30:21.325Z,101330.98
2018-10-19T12:31:27.420Z,101335.69
2018-10-19T12:32:33.564Z,101333.83
2018-10-19T12:33:39.860Z,101336.63
2018-10-19T12:34:46.003Z,101340.75